createdAt,value
2022-12-06T00:01:22.928Z,102394.50
2022-12-06T00:03:53.956Z,102411.94
2022-12-06T00:06:22.602Z,102435.47
2022-12-06T00:08:50.240Z,102371.94
2022-12-06T00:11:28.912Z,102412.03
2022-12-06T00:14:01.890Z,102418.09
2022-12-06T00:16:29.354Z,102413.84
2022-12-06T00:18:56.717Z,102408.44
2022-12-06T00:21:29.129Z,102390.38
2022-12-06T00:24:04.383Z,102402.44
2022-12-06T00:26:31.551Z,102398.19
2022-12-06T00:29:00.647Z,102403.34
2022-12-06T00:31:30.189Z,102405.28
2022-12-06T00:33:57.457Z,102408.63
2022-12-06T00:36:27.062Z,102397.28
2022-12-06T00:38:54.228Z,102393.84
2022-12-06T00:41:23.756Z,102372.19
2022-12-06T00:43:52.379Z,102383.34
2022-12-06T00:46:22.232Z,102388.66
2022-12-06T00:48:49.851Z,102381.72
2022-12-06T00:51:18.263Z,102384.44
2022-12-06T00:53:45.588Z,102356.56
2022-12-06T00:56:12.866Z,102390.34
2022-12-06T00:58:39.853Z,102348.81
2022-12-06T01:01:25.502Z,102387.25
2022-12-06T01:03:56.966Z,102371.56
2022-12-06T01:06:28.337Z,102394.13
2022-12-06T01:08:56.703Z,102340.13
2022-12-06T01:11:24.435Z,102377.47
2022-12-06T01:13:52.045Z,102361.94
2022-12-06T01:16:25.176Z,102373.34
2022-12-06T01:18:54.219Z,102364.66
2022-12-06T01:21:21.989Z,102356.81
2022-12-06T01:23:49.482Z,102362.81
2022-12-06T01:26:25.882Z,102337.63
2022-12-06T01:28:53.310Z,102368.91
2022-12-06T01:31:20.487Z,102368.00
2022-12-06T01:33:47.218Z,102322.75
2022-12-06T01:36:18.311Z,102336.66
2022-12-06T01:38:48.426Z,102320.19
2022-12-06T01:41:15.498Z,102343.72
2022-12-06T01:43:44.341Z,102338.38
2022-12-06T01:46:21.917Z,102345.38
2022-12-06T01:48:53.460Z,102310.56
2022-12-06T01:51:21.563Z,102338.41
2022-12-06T01:53:50.903Z,102343.56
2022-12-06T01:56:18.024Z,102346.16
2022-12-06T01:58:47.469Z,102353.06
2022-12-06T02:01:14.472Z,102353.00
2022-12-06T02:03:42.644Z,102351.31
2022-12-06T02:06:10.253Z,102331.31
2022-12-06T02:08:38.922Z,102351.28
2022-12-06T02:11:06.085Z,102344.41
2022-12-06T02:13:34.885Z,102330.34
2022-12-06T02:16:29.179Z,102338.31
2022-12-06T02:19:05.832Z,102336.38
2022-12-06T02:21:44.790Z,102339.88
2022-12-06T02:24:17.542Z,102332.97
2022-12-06T02:26:48.471Z,102330.38
2022-12-06T02:29:33.258Z,102321.66
2022-12-06T02:32:16.262Z,102306.13
2022-12-06T02:35:00.545Z,102314.75
2022-12-06T02:37:36.532Z,102319.84
2022-12-06T02:40:13.275Z,102328.59
2022-12-06T02:42:50.705Z,102320.81
2022-12-06T02:45:22.166Z,102319.00
2022-12-06T02:47:51.352Z,102312.03
2022-12-06T02:50:22.771Z,102317.38
2022-12-06T02:52:53.989Z,102322.47
2022-12-06T02:55:23.239Z,102324.41
2022-12-06T02:57:53.174Z,102312.25
2022-12-06T03:00:32.142Z,102315.84
2022-12-06T03:03:24.147Z,102317.56
2022-12-06T03:06:26.296Z,102309.75
2022-12-06T03:09:05.312Z,102293.31
2022-12-06T03:11:56.772Z,102306.13
2022-12-06T03:14:26.132Z,102306.94
2022-12-06T03:17:14.139Z,102310.34
2022-12-06T03:19:42.550Z,102283.41
2022-12-06T03:22:13.253Z,102298.25
2022-12-06T03:24:42.508Z,102284.50
2022-12-06T03:27:20.022Z,102288.84
2022-12-06T03:29:53.281Z,102290.63
2022-12-06T03:32:23.331Z,102296.75
2022-12-06T03:34:53.233Z,102281.94
2022-12-06T03:37:24.556Z,102287.94
2022-12-06T03:40:15.405Z,102274.13
2022-12-06T03:42:42.420Z,102290.63
2022-12-06T03:45:12.398Z,102291.63
2022-12-06T03:48:13.876Z,102288.97
2022-12-06T03:50:47.376Z,102277.81
2022-12-06T03:53:17.787Z,102262.13
2022-12-06T03:55:45.987Z,102266.41
2022-12-06T03:58:13.117Z,102235.94
2022-12-06T04:00:40.059Z,102249.06
2022-12-06T04:03:06.771Z,102265.59
2022-12-06T04:05:33.361Z,102252.41
2022-12-06T04:08:00.100Z,102258.47
2022-12-06T04:10:26.852Z,102259.38
2022-12-06T04:13:02.519Z,102275.91
2022-12-06T04:15:36.337Z,102268.06
2022-12-06T04:18:11.081Z,102267.16
2022-12-06T04:21:03.729Z,102265.41
2022-12-06T04:23:33.221Z,102267.22
2022-12-06T04:25:59.997Z,102257.75
2022-12-06T04:28:45.275Z,102245.53
2022-12-06T04:31:30.554Z,102227.06
2022-12-06T04:34:16.035Z,102244.59
2022-12-06T04:37:02.160Z,102254.09
2022-12-06T04:39:28.819Z,102241.91
2022-12-06T04:42:14.826Z,102246.38
2022-12-06T04:44:41.691Z,102243.72
2022-12-06T04:47:09.113Z,102240.22
2022-12-06T04:49:37.988Z,102241.19
2022-12-06T04:52:06.528Z,102235.19
2022-12-06T04:54:33.676Z,102237.78
2022-12-06T04:57:01.241Z,102235.19
2022-12-06T04:59:28.843Z,102241.13
2022-12-06T05:01:56.511Z,102245.44
2022-12-06T05:04:23.497Z,102234.09
2022-12-06T05:06:50.496Z,102230.72
2022-12-06T05:09:17.199Z,102212.34
2022-12-06T05:11:43.989Z,102237.72
2022-12-06T05:14:10.691Z,102230.72
2022-12-06T05:16:37.596Z,102235.19
2022-12-06T05:19:04.472Z,102234.19
2022-12-06T05:21:31.687Z,102230.00
2022-12-06T05:23:58.715Z,102243.84
2022-12-06T05:26:28.875Z,102230.03
2022-12-06T05:28:56.299Z,102244.66
2022-12-06T05:31:24.448Z,102250.75
2022-12-06T05:33:54.798Z,102244.72
2022-12-06T05:36:24.451Z,102197.81
2022-12-06T05:38:52.257Z,102246.47
2022-12-06T05:41:23.128Z,102251.56
2022-12-06T05:43:50.194Z,102250.69
2022-12-06T05:46:20.783Z,102281.06
2022-12-06T05:48:47.669Z,102284.97
2022-12-06T05:51:14.564Z,102284.22
2022-12-06T05:53:41.470Z,102269.44
2022-12-06T05:56:11.401Z,102272.78
2022-12-06T05:58:39.044Z,102257.31
2022-12-06T06:01:07.385Z,102235.50
2022-12-06T06:03:34.539Z,102246.84
2022-12-06T06:06:02.085Z,102252.91
2022-12-06T06:08:29.494Z,102256.34
2022-12-06T06:10:56.667Z,102218.91
2022-12-06T06:13:24.140Z,102238.91
2022-12-06T06:15:51.290Z,102237.41
2022-12-06T06:18:19.182Z,102235.72
2022-12-06T06:20:53.513Z,102229.66
2022-12-06T06:23:21.569Z,102227.09
2022-12-06T06:25:48.680Z,102235.72
2022-12-06T06:28:16.983Z,102241.84
2022-12-06T06:30:44.317Z,102232.16
2022-12-06T06:33:11.377Z,102237.50
2022-12-06T06:35:39.460Z,102234.75
2022-12-06T06:38:06.883Z,102235.63
2022-12-06T06:40:34.154Z,102234.03
2022-12-06T06:43:18.673Z,102229.50
2022-12-06T06:45:51.663Z,102209.38
2022-12-06T06:48:18.777Z,102230.19
2022-12-06T06:50:45.909Z,102219.00
2022-12-06T06:53:12.579Z,102225.06
2022-12-06T06:55:39.349Z,102172.81
2022-12-06T06:58:06.299Z,102213.75
2022-12-06T07:00:33.502Z,102235.44
2022-12-06T07:03:00.541Z,102195.38
2022-12-06T07:05:27.477Z,102239.78
2022-12-06T07:07:54.880Z,102238.00
2022-12-06T07:10:21.688Z,102234.56
2022-12-06T07:12:50.190Z,102189.34
2022-12-06T07:15:17.184Z,102198.84
2022-12-06T07:17:43.824Z,102213.69
2022-12-06T07:20:10.937Z,102220.63
2022-12-06T07:22:37.774Z,102224.97
2022-12-06T07:25:04.659Z,102225.88
2022-12-06T07:27:36.078Z,102190.22
2022-12-06T07:30:06.035Z,102202.44
2022-12-06T07:32:36.981Z,102161.66
2022-12-06T07:35:06.314Z,102238.22
2022-12-06T07:37:33.291Z,102167.00
2022-12-06T07:40:00.850Z,102222.44
2022-12-06T07:42:46.766Z,102239.81
2022-12-06T07:45:15.286Z,102186.06
2022-12-06T07:47:43.982Z,102248.66
2022-12-06T07:50:17.953Z,102197.31
2022-12-06T07:52:46.855Z,102174.03
2022-12-06T07:55:14.412Z,102215.53
2022-12-06T07:57:43.791Z,102199.78
2022-12-06T08:00:13.271Z,102212.00
2022-12-06T08:02:40.307Z,102217.31
2022-12-06T08:05:07.333Z,102240.69
2022-12-06T08:07:34.198Z,102227.94
2022-12-06T08:10:01.199Z,102231.34
2022-12-06T08:12:31.737Z,102244.25
2022-12-06T08:14:59.899Z,102252.09
2022-12-06T08:17:27.399Z,102237.16
2022-12-06T08:19:55.377Z,102227.75
2022-12-06T08:22:24.523Z,102214.31
2022-12-06T08:24:51.423Z,102238.81
2022-12-06T08:27:19.387Z,102260.63
2022-12-06T08:29:48.107Z,102250.38
2022-12-06T08:32:15.263Z,102259.84
2022-12-06T08:34:43.331Z,102231.28
2022-12-06T08:37:11.907Z,102219.88
2022-12-06T08:39:39.881Z,102223.44
2022-12-06T08:42:08.332Z,102246.00
2022-12-06T08:44:36.941Z,102223.41
2022-12-06T08:47:03.886Z,102222.56
2022-12-06T08:49:31.406Z,102235.69
2022-12-06T08:51:59.104Z,102258.28
2022-12-06T08:54:26.146Z,102247.00
2022-12-06T08:56:53.541Z,102209.47
2022-12-06T08:59:21.046Z,102240.03
2022-12-06T09:01:50.775Z,102203.78
2022-12-06T09:04:18.154Z,102213.38
2022-12-06T09:06:46.562Z,102249.81
2022-12-06T09:09:16.626Z,102251.53
2022-12-06T09:11:44.445Z,102222.03
2022-12-06T09:14:21.887Z,102240.47
2022-12-06T09:16:50.515Z,102245.75
2022-12-06T09:19:28.718Z,102199.53
2022-12-06T09:21:55.475Z,102193.31
2022-12-06T09:24:22.572Z,102239.34
2022-12-06T09:26:49.473Z,102265.56
2022-12-06T09:29:19.320Z,102237.81
2022-12-06T09:31:46.125Z,102253.41
2022-12-06T09:34:18.231Z,102214.09
2022-12-06T09:37:00.650Z,102241.91
2022-12-06T09:39:45.763Z,102268.16
2022-12-06T09:42:31.286Z,102273.38
2022-12-06T09:45:07.215Z,102245.56
2022-12-06T09:47:49.673Z,102277.72
2022-12-06T09:50:44.467Z,102202.84
2022-12-06T09:53:21.475Z,102275.97
2022-12-06T09:55:54.493Z,102276.78
2022-12-06T09:58:36.580Z,102277.69
2022-12-06T10:01:13.389Z,102269.91
2022-12-06T10:03:40.063Z,102264.84
2022-12-06T10:06:13.704Z,102261.25
2022-12-06T10:08:52.531Z,102260.59
2022-12-06T10:11:57.033Z,102262.25
2022-12-06T10:15:01.092Z,102259.69
2022-12-06T10:17:27.653Z,102262.31
2022-12-06T10:20:10.014Z,102197.84
2022-12-06T10:22:52.288Z,102268.41
2022-12-06T10:25:41.894Z,102265.75
2022-12-06T10:28:14.554Z,102272.75
2022-12-06T10:30:59.903Z,102279.69
2022-12-06T10:33:34.524Z,102298.81
2022-12-06T10:36:05.621Z,102265.72
2022-12-06T10:38:38.232Z,102285.81
2022-12-06T10:41:36.515Z,102278.84
2022-12-06T10:44:21.778Z,102245.78
2022-12-06T10:47:06.841Z,102272.78
2022-12-06T10:49:37.054Z,102281.47
2022-12-06T10:52:19.028Z,102286.66
2022-12-06T10:55:15.425Z,102284.03
2022-12-06T10:58:03.583Z,102293.63
2022-12-06T11:00:38.246Z,102252.75
2022-12-06T11:03:20.752Z,102284.16
2022-12-06T11:06:00.035Z,102286.78
2022-12-06T11:08:56.826Z,102281.50
2022-12-06T11:11:44.835Z,102278.06
2022-12-06T11:14:34.197Z,102275.41
2022-12-06T11:17:07.325Z,102264.13
2022-12-06T11:19:39.758Z,102248.53
2022-12-06T11:22:40.109Z,102217.25
2022-12-06T11:25:09.958Z,102257.25
2022-12-06T11:27:49.965Z,102219.84
2022-12-06T11:30:20.559Z,102203.31
2022-12-06T11:32:51.542Z,102218.97
2022-12-06T11:35:24.554Z,102245.00
2022-12-06T11:37:56.519Z,102201.63
2022-12-06T11:40:28.163Z,102251.13
2022-12-06T11:42:56.906Z,102213.41
2022-12-06T11:45:32.186Z,102238.59
2022-12-06T11:48:02.086Z,102232.44
2022-12-06T11:50:30.435Z,102255.16
2022-12-06T11:53:11.736Z,102218.63
2022-12-06T11:55:44.242Z,102250.94
2022-12-06T11:58:22.586Z,102227.44
2022-12-06T12:01:15.509Z,102244.09
2022-12-06T12:03:45.225Z,102223.13
2022-12-06T12:06:26.440Z,102251.91
2022-12-06T12:09:00.442Z,102231.03
2022-12-06T12:11:33.988Z,102175.50
2022-12-06T12:14:07.811Z,102229.47
2022-12-06T12:16:44.035Z,102164.34
2022-12-06T12:19:20.117Z,102234.75
2022-12-06T12:21:52.535Z,102208.53
2022-12-06T12:27:39.819Z,102212.16
2022-12-06T12:30:20.327Z,102233.75
2022-12-06T12:32:49.579Z,102169.28
2022-12-06T12:35:22.060Z,102235.38
2022-12-06T12:37:52.318Z,102171.06
2022-12-06T12:40:29.237Z,102178.16
2022-12-06T12:43:05.623Z,102230.38
2022-12-06T12:45:32.775Z,102238.09
2022-12-06T12:48:25.164Z,102179.72
2022-12-06T12:50:59.382Z,102243.22
2022-12-06T12:53:33.400Z,102236.19
2022-12-06T12:56:07.502Z,102153.69
2022-12-06T12:58:36.334Z,102213.72
2022-12-06T13:01:11.732Z,102200.72
2022-12-06T13:03:54.631Z,102197.31
2022-12-06T13:06:32.833Z,102207.66
2022-12-06T13:09:02.997Z,102229.44
2022-12-06T13:11:31.452Z,102215.47
2022-12-06T13:13:59.837Z,102214.41
2022-12-06T13:16:35.628Z,102185.81
2022-12-06T13:19:02.718Z,102229.19
2022-12-06T13:21:36.209Z,102224.78
2022-12-06T13:24:12.103Z,102220.47
2022-12-06T13:26:52.351Z,102209.38
2022-12-06T13:29:30.825Z,102217.94
2022-12-06T13:32:04.677Z,102211.88
2022-12-06T13:34:49.085Z,102216.13
2022-12-06T13:37:29.510Z,102189.44
2022-12-06T13:39:56.311Z,102198.94
2022-12-06T13:42:41.777Z,102190.28
2022-12-06T13:45:48.676Z,102201.59
2022-12-06T13:48:24.521Z,102197.31
2022-12-06T13:50:57.011Z,102195.47
2022-12-06T13:53:26.447Z,102192.88
2022-12-06T13:55:59.384Z,102194.69
2022-12-06T13:58:26.425Z,102200.72
2022-12-06T14:00:55.488Z,102192.00
2022-12-06T14:03:23.661Z,102199.81
2022-12-06T14:06:41.456Z,102198.94
2022-12-06T14:09:10.905Z,102202.22
2022-12-06T14:11:39.946Z,102208.28
2022-12-06T14:14:23.945Z,102200.59
2022-12-06T14:17:00.659Z,102210.97
2022-12-06T14:19:45.885Z,102216.94
2022-12-06T14:22:25.387Z,102178.69
2022-12-06T14:25:02.912Z,102217.03
2022-12-06T14:27:33.462Z,102214.34
2022-12-06T14:30:04.034Z,102210.94
2022-12-06T14:32:33.529Z,102143.25
2022-12-06T14:35:26.424Z,102205.09
2022-12-06T14:38:03.776Z,102206.84
2022-12-06T14:40:56.581Z,102210.16
2022-12-06T14:43:26.894Z,102215.34
2022-12-06T14:45:55.170Z,102168.25
2022-12-06T14:48:23.065Z,102144.06
2022-12-06T14:50:52.612Z,102219.53
2022-12-06T14:53:32.770Z,102210.00
2022-12-06T14:56:03.910Z,102147.34
2022-12-06T14:58:36.248Z,102211.78
2022-12-06T15:01:02.935Z,102215.22
2022-12-06T15:03:37.013Z,102213.38
2022-12-06T15:06:18.933Z,102209.06
2022-12-06T15:08:55.304Z,102177.56
2022-12-06T15:11:54.333Z,102196.06
2022-12-06T15:14:23.882Z,102175.25
2022-12-06T15:17:06.490Z,102171.78
2022-12-06T15:19:36.847Z,102195.09
2022-12-06T15:22:04.578Z,102137.66
2022-12-06T15:24:31.405Z,102127.19
2022-12-06T15:26:58.085Z,102161.84
2022-12-06T15:29:24.784Z,102132.41
2022-12-06T15:31:54.986Z,102129.94
2022-12-06T15:34:31.209Z,102108.22
2022-12-06T15:37:36.452Z,102180.28
2022-12-06T15:39:46.901Z,102123.97
2022-12-06T15:42:20.254Z,102149.94
2022-12-06T15:44:49.747Z,102187.28
2022-12-06T15:47:25.765Z,102188.25
2022-12-06T15:49:54.063Z,102195.09
2022-12-06T15:52:25.080Z,102151.63
2022-12-06T15:54:52.436Z,102208.19
2022-12-06T15:57:19.238Z,102213.28
2022-12-06T15:59:45.909Z,102163.84
2022-12-06T16:02:15.783Z,102205.28
2022-12-06T16:04:43.248Z,102199.38
2022-12-06T16:07:10.743Z,102172.97
2022-12-06T16:09:37.996Z,102167.22
2022-12-06T16:12:05.134Z,102201.16
2022-12-06T16:14:32.990Z,102204.38
2022-12-06T16:16:59.628Z,102145.22
2022-12-06T16:19:46.272Z,102191.34
2022-12-06T16:22:12.956Z,102163.56
2022-12-06T16:24:39.617Z,102155.84
2022-12-06T16:27:06.343Z,102148.78
2022-12-06T16:29:33.472Z,102148.72
2022-12-06T16:32:00.284Z,102208.75
2022-12-06T16:34:28.644Z,102172.13
2022-12-06T16:37:02.758Z,102207.06
2022-12-06T16:39:30.962Z,102208.56
2022-12-06T16:41:57.674Z,102159.13
2022-12-06T16:44:25.008Z,102172.91
2022-12-06T16:46:52.198Z,102155.56
2022-12-06T16:52:11.372Z,102120.56
2022-12-06T16:54:41.402Z,102146.81
2022-12-06T16:57:10.148Z,102131.19
2022-12-06T16:59:37.212Z,102194.59
2022-12-06T17:02:08.504Z,102181.25
2022-12-06T17:04:38.344Z,102126.38
2022-12-06T17:07:05.026Z,102163.72
2022-12-06T17:09:31.817Z,102162.94
2022-12-06T17:12:06.395Z,102111.72
2022-12-06T17:14:33.693Z,102188.16
2022-12-06T17:17:04.168Z,102136.13
2022-12-06T17:19:32.257Z,102190.00
2022-12-06T17:22:02.146Z,102191.63
2022-12-06T17:24:28.974Z,102179.50
2022-12-06T17:26:56.196Z,102175.13
2022-12-06T17:29:23.729Z,102137.66
2022-12-06T17:31:51.461Z,102150.22
2022-12-06T17:34:20.079Z,102182.41
2022-12-06T17:36:48.138Z,102079.59
2022-12-06T17:39:17.169Z,102157.78
2022-12-06T17:42:02.764Z,102151.69
2022-12-06T17:44:36.437Z,102195.13
2022-12-06T17:47:03.267Z,102185.72
2022-12-06T17:49:30.058Z,102156.84
2022-12-06T17:51:57.138Z,102145.41
2022-12-06T17:54:24.096Z,102121.13
2022-12-06T17:56:53.201Z,102202.59
2022-12-06T17:59:25.852Z,102194.06
2022-12-06T18:04:41.435Z,102168.69
2022-12-06T18:07:08.171Z,102153.09
2022-12-06T18:09:34.848Z,102135.53
2022-12-06T18:12:01.683Z,102156.13
2022-12-06T18:14:29.375Z,102113.03
2022-12-06T18:16:56.349Z,102092.13
2022-12-06T18:19:23.567Z,102125.91
2022-12-06T18:21:52.232Z,102185.97
2022-12-06T18:24:22.525Z,102180.91
2022-12-06T18:26:51.794Z,102133.88
2022-12-06T18:29:20.493Z,102156.44
2022-12-06T18:31:48.006Z,102164.22
2022-12-06T18:34:14.917Z,102199.91
2022-12-06T18:36:42.148Z,102183.31
2022-12-06T18:39:15.334Z,102169.66
2022-12-06T18:41:44.755Z,102120.16
2022-12-06T18:44:16.773Z,102195.75
2022-12-06T18:46:44.035Z,102150.44
2022-12-06T18:51:55.273Z,102157.72
2022-12-06T18:54:22.240Z,102168.00
2022-12-06T18:56:53.706Z,102140.09
2022-12-06T18:59:25.958Z,102143.41
2022-12-06T19:01:54.852Z,102102.44
2022-12-06T19:04:24.527Z,102125.94
2022-12-06T19:06:52.727Z,102157.16
2022-12-06T19:09:19.774Z,102157.16
2022-12-06T19:11:46.891Z,102162.22
2022-12-06T19:14:14.681Z,102149.25
2022-12-06T19:16:47.410Z,102190.22
2022-12-06T19:19:21.060Z,102183.00
2022-12-06T19:21:49.036Z,102161.56
2022-12-06T19:24:20.527Z,102145.81
2022-12-06T19:26:48.849Z,102138.88
2022-12-06T19:29:16.452Z,102150.41
2022-12-06T19:31:46.394Z,102138.78
2022-12-06T19:34:22.934Z,102132.91
2022-12-06T19:36:51.918Z,102140.06
2022-12-06T19:39:19.926Z,102183.41
2022-12-06T19:42:05.677Z,102172.41
2022-12-06T19:44:32.945Z,102140.88
2022-12-06T19:46:59.916Z,102132.06
2022-12-06T19:49:28.310Z,102100.63
2022-12-06T19:51:55.547Z,102145.16
2022-12-06T19:54:28.505Z,102091.19
2022-12-06T19:56:57.861Z,102145.38
2022-12-06T19:59:27.441Z,102150.75
2022-12-06T20:01:54.832Z,102138.50
2022-12-06T20:04:25.545Z,102142.13
2022-12-06T20:06:53.997Z,102135.09
2022-12-06T20:09:22.914Z,102147.31
2022-12-06T20:12:02.805Z,102149.88
2022-12-06T20:14:32.905Z,102152.44
2022-12-06T20:16:59.809Z,102152.41
2022-12-06T20:19:27.313Z,102147.53
2022-12-06T20:21:54.032Z,102138.91
2022-12-06T20:24:22.403Z,102155.31
2022-12-06T20:26:50.952Z,102148.38
2022-12-06T20:29:18.754Z,102132.06
2022-12-06T20:31:46.196Z,102152.16
2022-12-06T20:34:15.323Z,102147.75
2022-12-06T20:36:43.913Z,102139.97
2022-12-06T20:39:20.616Z,102151.97
2022-12-06T20:41:48.324Z,102130.22
2022-12-06T20:44:15.650Z,102121.53
2022-12-06T20:46:42.439Z,102110.25
2022-12-06T20:49:09.711Z,102149.38
2022-12-06T20:51:37.087Z,102139.66
2022-12-06T20:54:06.655Z,102156.88
2022-12-06T20:56:37.325Z,102156.81
2022-12-06T20:59:06.087Z,102146.38
2022-12-06T21:01:36.607Z,102117.72
2022-12-06T21:04:03.931Z,102117.91
2022-12-06T21:06:30.801Z,102135.44
2022-12-06T21:08:57.665Z,102108.44
2022-12-06T21:11:25.619Z,102127.34
2022-12-06T21:13:53.916Z,102125.59
2022-12-06T21:16:27.136Z,102096.91
2022-12-06T21:18:56.372Z,102126.47
2022-12-06T21:21:26.204Z,102093.72
2022-12-06T21:23:52.970Z,102119.03
2022-12-06T21:26:19.752Z,102120.75
2022-12-06T21:28:46.635Z,102068.59
2022-12-06T21:31:13.419Z,102068.44
2022-12-06T21:33:40.253Z,102117.91
2022-12-06T21:36:07.486Z,102114.28
2022-12-06T21:38:34.932Z,102128.22
2022-12-06T21:41:07.377Z,102093.56
2022-12-06T21:43:35.755Z,102098.81
2022-12-06T21:46:07.836Z,102111.66
2022-12-06T21:48:34.609Z,102109.38
2022-12-06T21:51:07.648Z,102104.94
2022-12-06T21:53:34.810Z,102103.31
2022-12-06T21:56:09.154Z,102112.09
2022-12-06T21:58:36.374Z,102111.22
2022-12-06T22:01:08.922Z,102078.25
2022-12-06T22:03:36.353Z,102111.25
2022-12-06T22:06:08.328Z,102117.47
2022-12-06T22:08:35.028Z,102097.44
2022-12-06T22:11:19.573Z,102111.25
2022-12-06T22:13:47.975Z,102133.59
2022-12-06T22:16:15.869Z,102136.06
2022-12-06T22:18:45.943Z,102136.06
2022-12-06T22:21:20.555Z,102099.63
2022-12-06T22:23:48.091Z,102117.78
2022-12-06T22:26:18.058Z,102096.66
2022-12-06T22:28:45.183Z,102107.19
2022-12-06T22:31:16.608Z,102089.03
2022-12-06T22:33:43.377Z,102069.88
2022-12-06T22:36:11.348Z,102097.78
2022-12-06T22:38:38.373Z,102100.34
2022-12-06T22:41:05.847Z,102105.44
2022-12-06T22:43:33.417Z,102104.59
2022-12-06T22:46:10.705Z,102110.78
2022-12-06T22:48:38.510Z,102115.09
2022-12-06T22:51:12.657Z,102107.28
2022-12-06T22:53:40.774Z,102102.75
2022-12-06T22:56:08.603Z,102090.50
2022-12-06T22:58:35.664Z,102107.81
2022-12-06T23:01:16.569Z,102068.63
2022-12-06T23:03:45.427Z,102087.72
2022-12-06T23:06:13.559Z,102088.81
2022-12-06T23:08:40.745Z,102082.66
2022-12-06T23:11:13.804Z,102089.75
2022-12-06T23:13:40.632Z,102061.81
2022-12-06T23:16:10.826Z,102091.34
2022-12-06T23:18:37.618Z,102092.22
2022-12-06T23:21:08.694Z,102059.50
2022-12-06T23:23:36.204Z,102083.09
2022-12-06T23:26:07.120Z,102093.53
2022-12-06T23:28:34.770Z,102043.94
2022-12-06T23:31:03.560Z,102071.69
2022-12-06T23:33:30.888Z,102072.56
2022-12-06T23:36:31.248Z,102084.91
2022-12-06T23:38:58.501Z,102083.97
2022-12-06T23:41:30.056Z,102088.34
2022-12-06T23:43:57.637Z,102081.16
2022-12-06T23:46:28.034Z,102087.25
2022-12-06T23:48:56.158Z,102065.41
2022-12-06T23:51:25.369Z,102075.19
2022-12-06T23:53:54.609Z,102002.03
2022-12-06T23:56:22.299Z,102040.31
2022-12-06T23:58:52.837Z,102039.59
